sensor_id;sensor_type;location;lat;lon;timestamp;pressure;altitude;pressure_sealevel;temperature
29701;BMP280;57917;51.380;-0.176;2022-09-14T00:01:36;100587.72;;;16.71
29701;BMP280;57917;51.380;-0.176;2022-09-14T00:07:36;100584.72;;;16.81
29701;BMP280;57917;51.380;-0.176;2022-09-14T00:13:27;100577.19;;;16.75
29701;BMP280;57917;51.380;-0.176;2022-09-14T00:19:25;100562.41;;;16.69
29701;BMP280;57917;51.380;-0.176;2022-09-14T00:25:19;100568.50;;;16.86
29701;BMP280;57917;51.380;-0.176;2022-09-14T00:38:11;100559.44;;;16.70
29701;BMP280;57917;51.380;-0.176;2022-09-14T00:50:08;100540.91;;;16.65
29701;BMP280;57917;51.380;-0.176;2022-09-14T00:56:03;100527.91;;;16.47
29701;BMP280;57917;51.380;-0.176;2022-09-14T01:02:04;100528.75;;;16.21
29701;BMP280;57917;51.380;-0.176;2022-09-14T01:27:19;100496.50;;;16.35
29701;BMP280;57917;51.380;-0.176;2022-09-14T01:33:36;100493.22;;;16.29
29701;BMP280;57917;51.380;-0.176;2022-09-14T01:40:33;100490.09;;;16.27
29701;BMP280;57917;51.380;-0.176;2022-09-14T01:46:36;100487.22;;;16.32
29701;BMP280;57917;51.380;-0.176;2022-09-14T01:52:54;100490.81;;;16.36
29701;BMP280;57917;51.380;-0.176;2022-09-14T02:05:41;100479.84;;;16.38
29701;BMP280;57917;51.380;-0.176;2022-09-14T02:11:42;100480.69;;;16.30
29701;BMP280;57917;51.380;-0.176;2022-09-14T02:18:56;100471.69;;;16.34
29701;BMP280;57917;51.380;-0.176;2022-09-14T02:25:59;100474.88;;;16.19
29701;BMP280;57917;51.380;-0.176;2022-09-14T02:59:25;100439.69;;;16.17
29701;BMP280;57917;51.380;-0.176;2022-09-14T03:05:33;100440.75;;;16.25
29701;BMP280;57917;51.380;-0.176;2022-09-14T03:11:52;100429.94;;;16.21
29701;BMP280;57917;51.380;-0.176;2022-09-14T03:17:52;100433.16;;;16.44
29701;BMP280;57917;51.380;-0.176;2022-09-14T03:23:47;100427.81;;;16.35
29701;BMP280;57917;51.380;-0.176;2022-09-14T03:29:45;100422.16;;;16.37
29701;BMP280;57917;51.380;-0.176;2022-09-14T03:35:33;100409.47;;;16.25
29701;BMP280;57917;51.380;-0.176;2022-09-14T03:41:22;100400.84;;;16.58
29701;BMP280;57917;51.380;-0.176;2022-09-14T03:47:11;100392.53;;;16.59
29701;BMP280;57917;51.380;-0.176;2022-09-14T03:52:58;100396.59;;;16.27
29701;BMP280;57917;51.380;-0.176;2022-09-14T03:58:48;100394.66;;;16.36
29701;BMP280;57917;51.380;-0.176;2022-09-14T04:04:49;100402.66;;;16.45
29701;BMP280;57917;51.380;-0.176;2022-09-14T04:11:23;100401.47;;;16.25
29701;BMP280;57917;51.380;-0.176;2022-09-14T04:17:14;100406.63;;;16.30
29701;BMP280;57917;51.380;-0.176;2022-09-14T04:23:10;100393.38;;;16.42
29701;BMP280;57917;51.380;-0.176;2022-09-14T04:29:03;100391.97;;;16.45
29701;BMP280;57917;51.380;-0.176;2022-09-14T04:35:19;100401.19;;;16.10
29701;BMP280;57917;51.380;-0.176;2022-09-14T04:41:57;100399.22;;;16.36
29701;BMP280;57917;51.380;-0.176;2022-09-14T04:48:20;100405.34;;;16.36
29701;BMP280;57917;51.380;-0.176;2022-09-14T04:55:18;100388.75;;;16.60
29701;BMP280;57917;51.380;-0.176;2022-09-14T05:01:41;100376.13;;;16.69
29701;BMP280;57917;51.380;-0.176;2022-09-14T05:07:32;100378.63;;;16.36
29701;BMP280;57917;51.380;-0.176;2022-09-14T05:13:55;100378.38;;;16.29
29701;BMP280;57917;51.380;-0.176;2022-09-14T05:20:40;100381.41;;;16.19
29701;BMP280;57917;51.380;-0.176;2022-09-14T05:26:38;100369.19;;;16.39
29701;BMP280;57917;51.380;-0.176;2022-09-14T05:32:30;100380.16;;;16.17
29701;BMP280;57917;51.380;-0.176;2022-09-14T05:38:33;100375.88;;;16.24
29701;BMP280;57917;51.380;-0.176;2022-09-14T05:51:00;100372.56;;;16.27
29701;BMP280;57917;51.380;-0.176;2022-09-14T05:57:07;100378.97;;;15.97
29701;BMP280;57917;51.380;-0.176;2022-09-14T06:03:16;100379.59;;;16.03
29701;BMP280;57917;51.380;-0.176;2022-09-14T06:09:03;100375.28;;;16.10
29701;BMP280;57917;51.380;-0.176;2022-09-14T06:15:15;100371.88;;;16.39
29701;BMP280;57917;51.380;-0.176;2022-09-14T06:21:21;100371.72;;;16.35
29701;BMP280;57917;51.380;-0.176;2022-09-14T06:27:09;100374.50;;;16.48
29701;BMP280;57917;51.380;-0.176;2022-09-14T06:33:03;100380.91;;;16.55
29701;BMP280;57917;51.380;-0.176;2022-09-14T06:38:52;100376.50;;;16.59
29701;BMP280;57917;51.380;-0.176;2022-09-14T06:44:42;100386.03;;;16.40
29701;BMP280;57917;51.380;-0.176;2022-09-14T06:50:31;100383.63;;;16.47
29701;BMP280;57917;51.380;-0.176;2022-09-14T06:56:21;100379.47;;;16.58
29701;BMP280;57917;51.380;-0.176;2022-09-14T07:02:59;100371.66;;;16.53
29701;BMP280;57917;51.380;-0.176;2022-09-14T07:08:47;100364.31;;;16.41
29701;BMP280;57917;51.380;-0.176;2022-09-14T07:14:42;100375.19;;;16.36
29701;BMP280;57917;51.380;-0.176;2022-09-14T07:20:59;100380.50;;;16.45
29701;BMP280;57917;51.380;-0.176;2022-09-14T07:26:51;100386.41;;;16.79
29701;BMP280;57917;51.380;-0.176;2022-09-14T07:32:38;100399.28;;;16.86
29701;BMP280;57917;51.380;-0.176;2022-09-14T07:38:26;100397.22;;;16.83
29701;BMP280;57917;51.380;-0.176;2022-09-14T07:44:33;100395.94;;;17.09
29701;BMP280;57917;51.380;-0.176;2022-09-14T07:50:23;100397.16;;;16.91
29701;BMP280;57917;51.380;-0.176;2022-09-14T07:56:12;100388.94;;;17.05
29701;BMP280;57917;51.380;-0.176;2022-09-14T08:01:59;100375.44;;;16.93
29701;BMP280;57917;51.380;-0.176;2022-09-14T08:07:46;100391.63;;;17.17
29701;BMP280;57917;51.380;-0.176;2022-09-14T08:13:39;100391.28;;;17.39
29701;BMP280;57917;51.380;-0.176;2022-09-14T08:19:26;100391.81;;;17.65
29701;BMP280;57917;51.380;-0.176;2022-09-14T08:25:14;100392.00;;;17.48
29701;BMP280;57917;51.380;-0.176;2022-09-14T08:31:05;100371.97;;;17.66
29701;BMP280;57917;51.380;-0.176;2022-09-14T08:37:02;100382.56;;;17.62
29701;BMP280;57917;51.380;-0.176;2022-09-14T08:42:58;100375.56;;;17.82
29701;BMP280;57917;51.380;-0.176;2022-09-14T08:48:51;100381.28;;;18.28
29701;BMP280;57917;51.380;-0.176;2022-09-14T08:54:50;100387.44;;;18.29
29701;BMP280;57917;51.380;-0.176;2022-09-14T09:00:50;100391.88;;;18.13
29701;BMP280;57917;51.380;-0.176;2022-09-14T09:12:37;100388.38;;;17.88
29701;BMP280;57917;51.380;-0.176;2022-09-14T09:18:36;100385.06;;;18.03
29701;BMP280;57917;51.380;-0.176;2022-09-14T09:24:44;100376.94;;;18.48
29701;BMP280;57917;51.380;-0.176;2022-09-14T09:30:35;100373.00;;;18.21
29701;BMP280;57917;51.380;-0.176;2022-09-14T09:36:22;100378.16;;;18.26
29701;BMP280;57917;51.380;-0.176;2022-09-14T09:42:38;100369.34;;;18.50
29701;BMP280;57917;51.380;-0.176;2022-09-14T09:56:58;100374.47;;;18.43
29701;BMP280;57917;51.380;-0.176;2022-09-14T10:02:52;100375.81;;;18.37
29701;BMP280;57917;51.380;-0.176;2022-09-14T10:08:45;100367.75;;;18.49
29701;BMP280;57917;51.380;-0.176;2022-09-14T10:14:39;100371.31;;;18.53
29701;BMP280;57917;51.380;-0.176;2022-09-14T10:35:50;100364.47;;;18.67
29701;BMP280;57917;51.380;-0.176;2022-09-14T10:48:12;100367.03;;;18.76
29701;BMP280;57917;51.380;-0.176;2022-09-14T10:54:51;100361.66;;;18.76
29701;BMP280;57917;51.380;-0.176;2022-09-14T11:01:08;100361.00;;;18.67
29701;BMP280;57917;51.380;-0.176;2022-09-14T11:25:27;100343.66;;;22.21
29701;BMP280;57917;51.380;-0.176;2022-09-14T11:31:25;100344.94;;;22.00
29701;BMP280;57917;51.380;-0.176;2022-09-14T11:37:18;100352.19;;;21.96
29701;BMP280;57917;51.380;-0.176;2022-09-14T11:43:41;100353.00;;;21.29
29701;BMP280;57917;51.380;-0.176;2022-09-14T11:55:23;100353.84;;;22.04
29701;BMP280;57917;51.380;-0.176;2022-09-14T12:01:52;100360.56;;;21.65
29701;BMP280;57917;51.380;-0.176;2022-09-14T12:08:42;100351.75;;;21.23
29701;BMP280;57917;51.380;-0.176;2022-09-14T12:21:44;100351.72;;;21.91
29701;BMP280;57917;51.380;-0.176;2022-09-14T12:27:42;100340.03;;;21.57
29701;BMP280;57917;51.380;-0.176;2022-09-14T12:39:34;100343.56;;;21.61
29701;BMP280;57917;51.380;-0.176;2022-09-14T12:46:33;100341.31;;;21.63
29701;BMP280;57917;51.380;-0.176;2022-09-14T13:04:59;100353.63;;;21.19
29701;BMP280;57917;51.380;-0.176;2022-09-14T13:10:57;100353.25;;;21.66
29701;BMP280;57917;51.380;-0.176;2022-09-14T13:17:04;100343.00;;;22.31
29701;BMP280;57917;51.380;-0.176;2022-09-14T13:23:22;100324.97;;;21.79
29701;BMP280;57917;51.380;-0.176;2022-09-14T13:29:19;100335.56;;;21.68
29701;BMP280;57917;51.380;-0.176;2022-09-14T13:36:02;100323.94;;;21.87
29701;BMP280;57917;51.380;-0.176;2022-09-14T13:41:51;100336.50;;;21.31
29701;BMP280;57917;51.380;-0.176;2022-09-14T13:47:47;100321.06;;;21.05
29701;BMP280;57917;51.380;-0.176;2022-09-14T13:53:50;100321.03;;;21.47
29701;BMP280;57917;51.380;-0.176;2022-09-14T14:13:24;100302.97;;;20.83
29701;BMP280;57917;51.380;-0.176;2022-09-14T14:26:25;100316.22;;;21.59
29701;BMP280;57917;51.380;-0.176;2022-09-14T14:32:29;100309.38;;;21.65
29701;BMP280;57917;51.380;-0.176;2022-09-14T14:38:23;100308.56;;;21.16
29701;BMP280;57917;51.380;-0.176;2022-09-14T14:44:18;100302.44;;;20.97
29701;BMP280;57917;51.380;-0.176;2022-09-14T14:50:26;100292.41;;;21.16
29701;BMP280;57917;51.380;-0.176;2022-09-14T14:56:33;100302.22;;;21.50
29701;BMP280;57917;51.380;-0.176;2022-09-14T15:02:21;100301.53;;;21.57
29701;BMP280;57917;51.380;-0.176;2022-09-14T15:08:15;100296.34;;;21.45
29701;BMP280;57917;51.380;-0.176;2022-09-14T15:14:14;100300.63;;;21.23
29701;BMP280;57917;51.380;-0.176;2022-09-14T15:20:13;100292.59;;;20.85
29701;BMP280;57917;51.380;-0.176;2022-09-14T15:26:17;100279.69;;;20.72
29701;BMP280;57917;51.380;-0.176;2022-09-14T15:32:16;100283.06;;;20.88
29701;BMP280;57917;51.380;-0.176;2022-09-14T15:38:19;100285.53;;;20.77
29701;BMP280;57917;51.380;-0.176;2022-09-14T15:44:17;100291.66;;;20.74
29701;BMP280;57917;51.380;-0.176;2022-09-14T15:50:18;100295.91;;;20.98
29701;BMP280;57917;51.380;-0.176;2022-09-14T15:56:12;100297.13;;;21.00
29701;BMP280;57917;51.380;-0.176;2022-09-14T16:02:29;100291.41;;;20.83
29701;BMP280;57917;51.380;-0.176;2022-09-14T16:08:38;100304.81;;;21.02
29701;BMP280;57917;51.380;-0.176;2022-09-14T16:15:18;100305.94;;;21.20
29701;BMP280;57917;51.380;-0.176;2022-09-14T16:21:20;100299.16;;;20.84
29701;BMP280;57917;51.380;-0.176;2022-09-14T16:27:12;100314.50;;;20.84
29701;BMP280;57917;51.380;-0.176;2022-09-14T16:32:59;100317.47;;;20.79
29701;BMP280;57917;51.380;-0.176;2022-09-14T16:38:47;100316.56;;;20.90
29701;BMP280;57917;51.380;-0.176;2022-09-14T16:44:37;100328.75;;;20.65
29701;BMP280;57917;51.380;-0.176;2022-09-14T16:50:29;100330.84;;;20.94
29701;BMP280;57917;51.380;-0.176;2022-09-14T16:56:44;100338.44;;;20.89
29701;BMP280;57917;51.380;-0.176;2022-09-14T17:03:20;100335.47;;;20.75
29701;BMP280;57917;51.380;-0.176;2022-09-14T17:09:12;100335.88;;;20.96
29701;BMP280;57917;51.380;-0.176;2022-09-14T17:15:02;100340.34;;;21.07
29701;BMP280;57917;51.380;-0.176;2022-09-14T17:20:58;100341.59;;;20.94
29701;BMP280;57917;51.380;-0.176;2022-09-14T17:26:56;100350.53;;;20.98
29701;BMP280;57917;51.380;-0.176;2022-09-14T17:33:00;100340.19;;;21.00
29701;BMP280;57917;51.380;-0.176;2022-09-14T17:38:47;100354.50;;;20.66
29701;BMP280;57917;51.380;-0.176;2022-09-14T17:44:37;100353.78;;;20.69
29701;BMP280;57917;51.380;-0.176;2022-09-14T17:50:43;100360.66;;;20.67
29701;BMP280;57917;51.380;-0.176;2022-09-14T17:57:48;100369.06;;;20.46
29701;BMP280;57917;51.380;-0.176;2022-09-14T18:12:13;100388.94;;;20.42
29701;BMP280;57917;51.380;-0.176;2022-09-14T18:18:31;100386.72;;;20.28
29701;BMP280;57917;51.380;-0.176;2022-09-14T18:40:37;100428.69;;;19.86
29701;BMP280;57917;51.380;-0.176;2022-09-14T18:46:42;100431.47;;;19.74
29701;BMP280;57917;51.380;-0.176;2022-09-14T19:14:56;100488.38;;;18.85
29701;BMP280;57917;51.380;-0.176;2022-09-14T19:35:19;100509.97;;;18.64
29701;BMP280;57917;51.380;-0.176;2022-09-14T19:41:23;100528.69;;;18.28
29701;BMP280;57917;51.380;-0.176;2022-09-14T19:47:29;100535.97;;;18.07
29701;BMP280;57917;51.380;-0.176;2022-09-14T19:54:08;100538.97;;;17.94
29701;BMP280;57917;51.380;-0.176;2022-09-14T20:00:12;100546.16;;;17.81
29701;BMP280;57917;51.380;-0.176;2022-09-14T20:06:07;100558.84;;;17.72
29701;BMP280;57917;51.380;-0.176;2022-09-14T20:12:20;100552.63;;;17.60
29701;BMP280;57917;51.380;-0.176;2022-09-14T20:19:04;100557.41;;;17.34
29701;BMP280;57917;51.380;-0.176;2022-09-14T20:26:13;100579.09;;;17.32
29701;BMP280;57917;51.380;-0.176;2022-09-14T20:32:33;100576.91;;;17.26
29701;BMP280;57917;51.380;-0.176;2022-09-14T20:39:24;100574.38;;;17.38
29701;BMP280;57917;51.380;-0.176;2022-09-14T20:53:30;100591.06;;;17.06
29701;BMP280;57917;51.380;-0.176;2022-09-14T21:07:12;100598.19;;;16.93
29701;BMP280;57917;51.380;-0.176;2022-09-14T21:13:46;100608.81;;;17.02
29701;BMP280;57917;51.380;-0.176;2022-09-14T21:19:57;100612.66;;;16.92
29701;BMP280;57917;51.380;-0.176;2022-09-14T21:26:40;100635.59;;;16.93
29701;BMP280;57917;51.380;-0.176;2022-09-14T21:32:48;100645.53;;;16.84
29701;BMP280;57917;51.380;-0.176;2022-09-14T21:38:55;100646.03;;;16.78
29701;BMP280;57917;51.380;-0.176;2022-09-14T21:44:45;100652.41;;;17.02
29701;BMP280;57917;51.380;-0.176;2022-09-14T21:50:40;100663.31;;;16.89
29701;BMP280;57917;51.380;-0.176;2022-09-14T21:56:37;100674.16;;;17.01
29701;BMP280;57917;51.380;-0.176;2022-09-14T22:02:34;100677.19;;;16.74
29701;BMP280;57917;51.380;-0.176;2022-09-14T22:08:22;100679.44;;;16.55
29701;BMP280;57917;51.380;-0.176;2022-09-14T22:14:16;100682.34;;;16.79
29701;BMP280;57917;51.380;-0.176;2022-09-14T22:20:09;100681.91;;;16.68
29701;BMP280;57917;51.380;-0.176;2022-09-14T22:26:04;100697.66;;;16.53
29701;BMP280;57917;51.380;-0.176;2022-09-14T22:31:54;100696.88;;;16.69
29701;BMP280;57917;51.380;-0.176;2022-09-14T22:37:40;100706.25;;;16.92
29701;BMP280;57917;51.380;-0.176;2022-09-14T22:43:29;100704.66;;;16.91
29701;BMP280;57917;51.380;-0.176;2022-09-14T22:49:23;100694.13;;;16.95
29701;BMP280;57917;51.380;-0.176;2022-09-14T22:55:42;100694.13;;;16.95
29701;BMP280;57917;51.380;-0.176;2022-09-14T23:01:33;100704.88;;;16.86
29701;BMP280;57917;51.380;-0.176;2022-09-14T23:07:23;100709.88;;;16.88
29701;BMP280;57917;51.380;-0.176;2022-09-14T23:13:13;100713.81;;;16.73
29701;BMP280;57917;51.380;-0.176;2022-09-14T23:19:02;100711.63;;;16.58
29701;BMP280;57917;51.380;-0.176;2022-09-14T23:24:56;100712.75;;;16.57
29701;BMP280;57917;51.380;-0.176;2022-09-14T23:31:41;100719.84;;;16.45
29701;BMP280;57917;51.380;-0.176;2022-09-14T23:37:28;100711.00;;;16.35
29701;BMP280;57917;51.380;-0.176;2022-09-14T23:43:16;100711.00;;;16.27
29701;BMP280;57917;51.380;-0.176;2022-09-14T23:49:04;100725.28;;;16.22
29701;BMP280;57917;51.380;-0.176;2022-09-14T23:54:50;100731.53;;;16.09
